createdAt,value
2022-11-09T00:05:05.588Z,7.07
2022-11-09T00:10:12.337Z,7.37
2022-11-09T00:15:18.765Z,8.35
2022-11-09T00:20:26.503Z,6.43
2022-11-09T00:25:33.027Z,7.78
2022-11-09T00:30:39.206Z,8.25
2022-11-09T00:35:46.800Z,7.45
2022-11-09T00:40:53.065Z,7.40
2022-11-09T00:45:59.805Z,8.23
2022-11-09T00:51:08.409Z,8.32
2022-11-09T00:56:15.087Z,7.50
2022-11-09T01:01:21.538Z,9.30
2022-11-09T01:06:29.470Z,8.75
2022-11-09T01:11:36.590Z,9.45
2022-11-09T01:16:42.935Z,8.85
2022-11-09T01:21:51.122Z,8.65
2022-11-09T01:26:57.511Z,8.77
2022-11-09T01:32:05.168Z,9.07
2022-11-09T01:37:12.885Z,7.97
2022-11-09T01:42:26.150Z,8.52
2022-11-09T01:47:32.640Z,9.05
2022-11-09T01:52:44.104Z,8.48
2022-11-09T01:57:59.586Z,9.93
2022-11-09T02:03:11.372Z,9.23
2022-11-09T02:08:25.827Z,11.43
2022-11-09T02:13:33.822Z,10.73
2022-11-09T02:18:53.805Z,10.23
2022-11-09T02:24:04.543Z,10.15
2022-11-09T02:29:18.295Z,9.88
2022-11-09T02:34:26.196Z,9.80
2022-11-09T02:39:34.492Z,10.97
2022-11-09T02:44:45.529Z,11.70
2022-11-09T02:49:52.345Z,10.73
2022-11-09T02:55:01.113Z,10.77
2022-11-09T03:00:10.845Z,10.98
2022-11-09T03:05:18.142Z,11.15
2022-11-09T03:10:26.286Z,11.30
2022-11-09T03:15:32.538Z,11.68
2022-11-09T03:20:39.286Z,11.05
2022-11-09T03:25:48.197Z,11.52
2022-11-09T03:30:54.913Z,11.85
2022-11-09T03:36:01.623Z,10.45
2022-11-09T03:41:10.042Z,11.02
2022-11-09T03:46:16.566Z,10.75
2022-11-09T03:51:22.624Z,11.75
2022-11-09T03:56:30.812Z,10.88
2022-11-09T04:01:36.879Z,11.57
2022-11-09T04:06:43.042Z,13.13
2022-11-09T04:11:50.784Z,11.18
2022-11-09T04:16:56.906Z,11.48
2022-11-09T04:22:03.057Z,10.32
2022-11-09T04:27:10.599Z,12.60
2022-11-09T04:32:16.854Z,12.25
2022-11-09T04:37:22.958Z,11.65
2022-11-09T04:42:30.400Z,12.50
2022-11-09T04:47:36.465Z,11.45
2022-11-09T04:52:42.805Z,12.10
2022-11-09T04:57:50.373Z,11.75
2022-11-09T05:02:56.629Z,11.02
2022-11-09T05:08:02.988Z,12.43
2022-11-09T05:13:14.462Z,11.82
2022-11-09T05:18:20.742Z,12.52
2022-11-09T05:23:44.037Z,11.38
2022-11-09T05:28:53.019Z,11.50
2022-11-09T05:33:59.752Z,12.55
2022-11-09T05:39:05.983Z,11.65
2022-11-09T05:44:13.659Z,11.35
2022-11-09T05:49:19.977Z,11.65
2022-11-09T05:54:25.994Z,13.13
2022-11-09T05:59:33.450Z,11.38
2022-11-09T06:04:39.793Z,11.13
2022-11-09T06:09:46.197Z,11.80
2022-11-09T06:14:53.758Z,11.68
2022-11-09T06:20:00.628Z,12.87
2022-11-09T06:25:07.871Z,13.55
2022-11-09T06:30:16.432Z,11.90
2022-11-09T06:35:22.693Z,13.50
2022-11-09T06:40:29.454Z,14.18
2022-11-09T06:45:37.507Z,13.43
2022-11-09T06:50:43.761Z,12.48
2022-11-09T06:55:51.061Z,14.52
2022-11-09T07:00:59.192Z,13.40
2022-11-09T07:06:09.037Z,14.60
2022-11-09T07:11:17.857Z,12.85
2022-11-09T07:16:25.460Z,12.02
2022-11-09T07:21:31.769Z,12.80
2022-11-09T07:26:37.901Z,13.00
2022-11-09T07:31:45.671Z,13.75
2022-11-09T07:36:54.369Z,14.18
2022-11-09T07:42:00.708Z,12.57
2022-11-09T07:47:08.572Z,13.75
2022-11-09T07:52:15.462Z,14.43
2022-11-09T07:57:21.751Z,14.00
2022-11-09T08:02:29.385Z,12.38
2022-11-09T08:07:35.545Z,14.30
2022-11-09T08:12:42.513Z,14.60
2022-11-09T08:17:50.147Z,13.70
2022-11-09T08:23:00.897Z,12.77
2022-11-09T08:28:14.562Z,13.30
2022-11-09T08:33:23.099Z,13.02
2022-11-09T08:38:29.286Z,13.05
2022-11-09T08:43:35.642Z,13.13
2022-11-09T08:48:43.172Z,13.23
2022-11-09T08:53:49.332Z,12.77
2022-11-09T08:58:55.463Z,13.73
2022-11-09T09:04:03.810Z,12.15
2022-11-09T09:09:10.219Z,13.95
2022-11-09T09:14:17.331Z,13.07
2022-11-09T09:19:25.075Z,13.20
2022-11-09T09:24:32.342Z,12.23
2022-11-09T09:29:38.432Z,13.57
2022-11-09T09:34:45.956Z,14.10
2022-11-09T09:39:52.422Z,11.20
2022-11-09T09:45:04.346Z,11.82
2022-11-09T09:50:19.152Z,12.38
2022-11-09T09:55:31.357Z,11.65
2022-11-09T10:00:39.809Z,15.93
2022-11-09T10:05:57.715Z,19.00
2022-11-09T10:11:18.456Z,18.08
2022-11-09T10:16:35.256Z,12.27
2022-11-09T10:21:51.218Z,12.30
2022-11-09T10:27:00.610Z,13.30
2022-11-09T10:32:21.147Z,12.10
2022-11-09T10:37:36.989Z,11.52
2022-11-09T10:42:47.689Z,11.60
2022-11-09T10:53:39.301Z,11.18
2022-11-09T10:59:04.652Z,13.48
2022-11-09T11:04:30.331Z,11.43
2022-11-09T11:09:56.744Z,24.95
2022-11-09T11:15:27.321Z,24.38
2022-11-09T11:21:18.500Z,52.85
2022-11-09T11:26:55.517Z,27.17
2022-11-09T11:32:22.594Z,12.80
2022-11-09T11:38:02.526Z,14.50
2022-11-09T11:43:46.398Z,13.00
2022-11-09T11:49:55.025Z,13.25
2022-11-09T11:55:40.117Z,18.33
2022-11-09T12:01:34.624Z,14.48
2022-11-09T12:07:24.963Z,19.95
2022-11-09T12:13:01.837Z,30.38
2022-11-09T12:18:44.298Z,14.43
2022-11-09T12:24:23.777Z,12.32
2022-11-09T12:29:59.383Z,20.08
2022-11-09T12:35:38.462Z,21.73
2022-11-09T12:41:09.457Z,14.15
2022-11-09T12:46:40.248Z,13.68
2022-11-09T12:52:08.246Z,15.40
2022-11-09T12:57:34.278Z,11.37
2022-11-09T13:03:02.035Z,22.85
2022-11-09T13:08:30.619Z,11.27
2022-11-09T13:14:38.966Z,12.13
2022-11-09T13:20:03.718Z,11.80
2022-11-09T13:25:54.294Z,17.45
2022-11-09T13:32:05.102Z,19.60
2022-11-09T13:37:58.318Z,13.93
2022-11-09T13:43:28.512Z,15.05
2022-11-09T13:48:54.555Z,13.77
2022-11-09T13:54:35.219Z,13.25
2022-11-09T14:00:04.216Z,15.75
2022-11-09T14:11:46.926Z,45.25
2022-11-09T14:17:22.895Z,33.97
2022-11-09T14:22:47.472Z,15.90
2022-11-09T14:28:24.232Z,13.23
2022-11-09T14:34:02.472Z,14.45
2022-11-09T14:39:32.575Z,15.35
2022-11-09T14:44:57.290Z,30.77
2022-11-09T14:50:26.656Z,18.90
2022-11-09T14:55:53.291Z,16.65
2022-11-09T15:01:25.846Z,13.55
2022-11-09T15:06:56.752Z,12.98
2022-11-09T15:12:23.705Z,16.52
2022-11-09T15:17:48.938Z,14.95
2022-11-09T15:23:39.426Z,16.17
2022-11-09T15:29:25.085Z,13.57
2022-11-09T15:34:57.802Z,12.23
2022-11-09T15:40:26.740Z,13.25
2022-11-09T15:45:51.986Z,12.55
2022-11-09T15:51:18.173Z,11.90
2022-11-09T15:56:45.104Z,13.30
2022-11-09T16:02:12.945Z,13.98
2022-11-09T16:07:38.649Z,12.27
2022-11-09T16:13:06.840Z,14.00
2022-11-09T16:18:32.659Z,13.95
2022-11-09T16:23:58.798Z,13.82
2022-11-09T16:29:28.800Z,13.02
2022-11-09T16:35:15.396Z,14.88
2022-11-09T16:40:40.793Z,15.77
2022-11-09T16:46:08.059Z,14.68
2022-11-09T16:51:33.235Z,17.05
2022-11-09T16:56:58.645Z,19.10
2022-11-09T17:02:27.114Z,18.40
2022-11-09T17:07:52.484Z,17.00
2022-11-09T17:13:18.295Z,21.23
2022-11-09T17:18:45.035Z,20.23
2022-11-09T17:24:11.075Z,17.38
2022-11-09T17:29:40.031Z,19.67
2022-11-09T17:35:07.997Z,18.48
2022-11-09T17:40:33.677Z,17.98
2022-11-09T17:45:59.025Z,18.58
2022-11-09T17:51:26.541Z,18.50
2022-11-09T17:56:52.393Z,17.60
2022-11-09T18:02:19.101Z,19.10
2022-11-09T18:07:46.621Z,18.65
2022-11-09T18:13:12.733Z,15.75
2022-11-09T18:18:39.086Z,18.35
2022-11-09T18:24:06.705Z,18.85
2022-11-09T18:29:33.004Z,19.58
2022-11-09T18:34:59.117Z,17.23
2022-11-09T18:40:26.927Z,17.55
2022-11-09T18:45:58.021Z,18.60
2022-11-09T18:51:23.964Z,15.15
2022-11-09T18:56:54.536Z,17.02
2022-11-09T19:02:20.097Z,20.67
2022-11-09T19:07:45.474Z,17.02
2022-11-09T19:13:13.879Z,19.30
2022-11-09T19:18:39.703Z,18.45
2022-11-09T19:24:06.696Z,18.85
2022-11-09T19:29:34.756Z,18.65
2022-11-09T19:35:01.532Z,18.95
2022-11-09T19:40:27.604Z,18.35
2022-11-09T19:45:55.202Z,20.15
2022-11-09T19:51:21.904Z,21.33
2022-11-09T19:56:48.833Z,24.05
2022-11-09T20:02:18.271Z,22.35
2022-11-09T20:07:44.207Z,23.30
2022-11-09T20:13:12.951Z,21.05
2022-11-09T20:18:41.103Z,19.88
2022-11-09T20:24:09.365Z,19.75
2022-11-09T20:29:37.844Z,22.83
2022-11-09T20:35:05.163Z,23.02
2022-11-09T20:40:32.054Z,22.77
2022-11-09T20:45:58.875Z,22.25
2022-11-09T20:51:28.480Z,26.67
2022-11-09T20:56:55.128Z,26.83
2022-11-09T21:02:21.048Z,30.38
2022-11-09T21:07:48.453Z,29.42
2022-11-09T21:13:13.831Z,25.67
2022-11-09T21:18:38.711Z,23.13
2022-11-09T21:24:23.398Z,23.63
2022-11-09T21:29:54.791Z,23.02
2022-11-09T21:35:20.044Z,19.88
2022-11-09T21:40:46.785Z,19.60
2022-11-09T21:46:11.605Z,20.33
2022-11-09T21:51:38.015Z,17.30
2022-11-09T21:57:04.632Z,14.45
2022-11-09T22:02:29.822Z,13.95
2022-11-09T22:07:55.673Z,15.40
2022-11-09T22:13:39.443Z,15.65
2022-11-09T22:19:22.951Z,16.27
2022-11-09T22:24:47.659Z,17.95
2022-11-09T22:30:14.956Z,18.20
2022-11-09T22:35:39.786Z,20.60
2022-11-09T22:41:06.921Z,18.30
2022-11-09T22:46:33.206Z,20.35
2022-11-09T22:51:58.016Z,20.17
2022-11-09T22:57:22.717Z,19.08
2022-11-09T23:02:48.968Z,19.67
2022-11-09T23:08:14.266Z,18.17
2022-11-09T23:13:39.395Z,18.27
2022-11-09T23:19:05.617Z,18.25
2022-11-09T23:24:47.446Z,16.80
2022-11-09T23:30:14.438Z,16.92
2022-11-09T23:35:40.894Z,16.23
2022-11-09T23:41:07.185Z,16.33
2022-11-09T23:46:31.642Z,20.27
2022-11-09T23:51:57.648Z,17.33
2022-11-09T23:57:22.702Z,17.45
